< < Back
Terminal Aerodrome Forecast


Current Version              Previous Versions:   1  2  3  4  5  6  7  8  9  

Terminal Aerodrome Forecast

786
FTUS42 KMLB 241100
TAFDAB
TAF
KDAB 241130Z 2412/2512 00000KT P6SM FEW004
      TEMPO 2412/2413 3SM BR SCT004
     FM241500 12005KT P6SM FEW025
     FM241800 11010KT P6SM FEW040
     FM250000 14005KT P6SM FEW050 BKN250=

Latest METAR

186
SAUS80 KWBC 241700 CCA
MTRDAB
METAR KDAB 241653Z 10006KT 10SM FEW040 27/18 A3002 RMK AO2 SLP163
T02670178


USA.gov is the U.S. government's official web portal to all federal, state and local government web resources and services.